sensor_id;sensor_type;location;lat;lon;timestamp;P1;durP1;ratioP1;P2;durP2;ratioP2
59734;SDS011;64362;45.620;4.920;2023-02-28T00:00:42;3.35;;;2.40;;
59734;SDS011;64362;45.620;4.920;2023-02-28T00:03:08;5.35;;;2.80;;
59734;SDS011;64362;45.620;4.920;2023-02-28T00:05:34;3.85;;;2.60;;
59734;SDS011;64362;45.620;4.920;2023-02-28T00:07:59;3.35;;;2.53;;
59734;SDS011;64362;45.620;4.920;2023-02-28T00:10:26;3.42;;;2.35;;
59734;SDS011;64362;45.620;4.920;2023-02-28T00:12:54;3.47;;;2.70;;
59734;SDS011;64362;45.620;4.920;2023-02-28T00:15:22;3.72;;;2.75;;
59734;SDS011;64362;45.620;4.920;2023-02-28T00:17:48;5.05;;;2.70;;
59734;SDS011;64362;45.620;4.920;2023-02-28T00:20:14;3.65;;;2.60;;
59734;SDS011;64362;45.620;4.920;2023-02-28T00:22:44;3.80;;;2.80;;
59734;SDS011;64362;45.620;4.920;2023-02-28T00:25:13;3.50;;;2.47;;
59734;SDS011;64362;45.620;4.920;2023-02-28T00:27:40;5.47;;;2.40;;
59734;SDS011;64362;45.620;4.920;2023-02-28T00:30:07;3.67;;;2.28;;
59734;SDS011;64362;45.620;4.920;2023-02-28T00:32:36;3.75;;;2.28;;
59734;SDS011;64362;45.620;4.920;2023-02-28T00:35:01;4.57;;;2.90;;
59734;SDS011;64362;45.620;4.920;2023-02-28T00:37:27;3.50;;;2.50;;
59734;SDS011;64362;45.620;4.920;2023-02-28T00:39:53;3.22;;;2.17;;
59734;SDS011;64362;45.620;4.920;2023-02-28T00:42:18;4.50;;;2.70;;
59734;SDS011;64362;45.620;4.920;2023-02-28T00:44:46;3.88;;;2.55;;
59734;SDS011;64362;45.620;4.920;2023-02-28T00:47:12;2.83;;;2.33;;
59734;SDS011;64362;45.620;4.920;2023-02-28T00:49:37;3.63;;;2.67;;
59734;SDS011;64362;45.620;4.920;2023-02-28T00:52:03;4.20;;;2.90;;
59734;SDS011;64362;45.620;4.920;2023-02-28T00:54:28;3.92;;;2.70;;
59734;SDS011;64362;45.620;4.920;2023-02-28T00:56:54;3.47;;;2.78;;
59734;SDS011;64362;45.620;4.920;2023-02-28T00:59:19;3.85;;;2.63;;
59734;SDS011;64362;45.620;4.920;2023-02-28T01:01:45;4.07;;;2.83;;
59734;SDS011;64362;45.620;4.920;2023-02-28T01:04:11;4.65;;;2.70;;
59734;SDS011;64362;45.620;4.920;2023-02-28T01:06:37;3.13;;;2.47;;
59734;SDS011;64362;45.620;4.920;2023-02-28T01:09:04;4.25;;;3.15;;
59734;SDS011;64362;45.620;4.920;2023-02-28T01:11:30;3.83;;;2.78;;
59734;SDS011;64362;45.620;4.920;2023-02-28T01:13:56;4.03;;;2.65;;
59734;SDS011;64362;45.620;4.920;2023-02-28T01:16:22;3.33;;;2.70;;
59734;SDS011;64362;45.620;4.920;2023-02-28T01:18:47;3.20;;;2.40;;
59734;SDS011;64362;45.620;4.920;2023-02-28T01:21:14;4.20;;;3.10;;
59734;SDS011;64362;45.620;4.920;2023-02-28T01:23:41;3.50;;;2.40;;
59734;SDS011;64362;45.620;4.920;2023-02-28T01:26:09;4.13;;;2.50;;
59734;SDS011;64362;45.620;4.920;2023-02-28T01:28:38;3.60;;;2.47;;
59734;SDS011;64362;45.620;4.920;2023-02-28T01:31:04;3.95;;;2.60;;
59734;SDS011;64362;45.620;4.920;2023-02-28T01:33:30;3.28;;;2.70;;
59734;SDS011;64362;45.620;4.920;2023-02-28T01:36:01;3.55;;;2.47;;
59734;SDS011;64362;45.620;4.920;2023-02-28T01:38:31;3.33;;;2.55;;
59734;SDS011;64362;45.620;4.920;2023-02-28T01:40:57;5.28;;;2.28;;
59734;SDS011;64362;45.620;4.920;2023-02-28T01:43:24;3.72;;;2.58;;
59734;SDS011;64362;45.620;4.920;2023-02-28T01:45:54;3.20;;;2.50;;
59734;SDS011;64362;45.620;4.920;2023-02-28T01:48:22;5.03;;;2.40;;
59734;SDS011;64362;45.620;4.920;2023-02-28T01:50:51;3.05;;;2.58;;
59734;SDS011;64362;45.620;4.920;2023-02-28T01:53:19;4.03;;;2.80;;
59734;SDS011;64362;45.620;4.920;2023-02-28T01:55:49;3.45;;;2.45;;
59734;SDS011;64362;45.620;4.920;2023-02-28T01:58:15;3.47;;;2.30;;
59734;SDS011;64362;45.620;4.920;2023-02-28T02:00:41;3.95;;;2.80;;
59734;SDS011;64362;45.620;4.920;2023-02-28T02:03:11;3.55;;;2.42;;
59734;SDS011;64362;45.620;4.920;2023-02-28T02:05:39;4.32;;;2.33;;
59734;SDS011;64362;45.620;4.920;2023-02-28T02:08:06;3.92;;;2.60;;
59734;SDS011;64362;45.620;4.920;2023-02-28T02:10:38;2.65;;;2.08;;
59734;SDS011;64362;45.620;4.920;2023-02-28T02:18:22;4.30;;;2.60;;
59734;SDS011;64362;45.620;4.920;2023-02-28T02:42:48;4.13;;;2.67;;
59734;SDS011;64362;45.620;4.920;2023-02-28T02:45:35;3.10;;;2.53;;
59734;SDS011;64362;45.620;4.920;2023-02-28T02:48:05;3.78;;;2.13;;
59734;SDS011;64362;45.620;4.920;2023-02-28T02:50:41;2.92;;;2.10;;
59734;SDS011;64362;45.620;4.920;2023-02-28T02:53:09;3.30;;;2.28;;
59734;SDS011;64362;45.620;4.920;2023-02-28T02:55:40;4.35;;;2.50;;
59734;SDS011;64362;45.620;4.920;2023-02-28T02:58:11;3.35;;;2.53;;
59734;SDS011;64362;45.620;4.920;2023-02-28T03:00:42;4.43;;;2.50;;
59734;SDS011;64362;45.620;4.920;2023-02-28T03:03:13;3.42;;;2.88;;
59734;SDS011;64362;45.620;4.920;2023-02-28T03:05:51;3.85;;;2.28;;
59734;SDS011;64362;45.620;4.920;2023-02-28T03:08:17;3.40;;;2.25;;
59734;SDS011;64362;45.620;4.920;2023-02-28T03:10:44;3.63;;;2.50;;
59734;SDS011;64362;45.620;4.920;2023-02-28T03:16:09;4.72;;;2.38;;
59734;SDS011;64362;45.620;4.920;2023-02-28T03:27:00;4.40;;;2.65;;
59734;SDS011;64362;45.620;4.920;2023-02-28T03:29:56;3.90;;;2.92;;
59734;SDS011;64362;45.620;4.920;2023-02-28T03:37:40;3.33;;;2.30;;
59734;SDS011;64362;45.620;4.920;2023-02-28T03:40:15;3.92;;;2.17;;
59734;SDS011;64362;45.620;4.920;2023-02-28T03:42:45;3.95;;;2.35;;
59734;SDS011;64362;45.620;4.920;2023-02-28T03:45:21;4.40;;;2.30;;
59734;SDS011;64362;45.620;4.920;2023-02-28T03:47:53;4.53;;;2.60;;
59734;SDS011;64362;45.620;4.920;2023-02-28T03:50:34;4.28;;;2.72;;
59734;SDS011;64362;45.620;4.920;2023-02-28T03:53:08;3.35;;;2.38;;
59734;SDS011;64362;45.620;4.920;2023-02-28T03:55:43;3.05;;;2.33;;
59734;SDS011;64362;45.620;4.920;2023-02-28T04:00:40;4.53;;;2.38;;
59734;SDS011;64362;45.620;4.920;2023-02-28T04:03:10;3.20;;;2.17;;
59734;SDS011;64362;45.620;4.920;2023-02-28T04:05:44;3.60;;;2.38;;
59734;SDS011;64362;45.620;4.920;2023-02-28T04:08:20;3.50;;;2.17;;
59734;SDS011;64362;45.620;4.920;2023-02-28T04:10:49;3.85;;;2.13;;
59734;SDS011;64362;45.620;4.920;2023-02-28T04:13:18;3.55;;;2.38;;
59734;SDS011;64362;45.620;4.920;2023-02-28T04:15:43;2.72;;;2.00;;
59734;SDS011;64362;45.620;4.920;2023-02-28T04:18:09;3.83;;;2.50;;
59734;SDS011;64362;45.620;4.920;2023-02-28T04:20:34;2.67;;;2.00;;
59734;SDS011;64362;45.620;4.920;2023-02-28T04:23:00;3.83;;;2.40;;
59734;SDS011;64362;45.620;4.920;2023-02-28T04:25:25;3.00;;;2.10;;
59734;SDS011;64362;45.620;4.920;2023-02-28T04:27:51;5.15;;;2.17;;
59734;SDS011;64362;45.620;4.920;2023-02-28T04:30:16;3.58;;;2.30;;
59734;SDS011;64362;45.620;4.920;2023-02-28T04:32:42;4.45;;;2.30;;
59734;SDS011;64362;45.620;4.920;2023-02-28T04:35:07;3.67;;;2.13;;
59734;SDS011;64362;45.620;4.920;2023-02-28T04:37:33;4.95;;;2.30;;
59734;SDS011;64362;45.620;4.920;2023-02-28T04:40:02;3.15;;;2.10;;
59734;SDS011;64362;45.620;4.920;2023-02-28T04:42:28;4.00;;;2.42;;
59734;SDS011;64362;45.620;4.920;2023-02-28T04:45:00;2.80;;;2.13;;
59734;SDS011;64362;45.620;4.920;2023-02-28T04:47:28;3.33;;;2.17;;
59734;SDS011;64362;45.620;4.920;2023-02-28T04:49:54;3.00;;;2.10;;
59734;SDS011;64362;45.620;4.920;2023-02-28T04:52:20;3.42;;;2.03;;
59734;SDS011;64362;45.620;4.920;2023-02-28T04:54:45;3.70;;;2.50;;
59734;SDS011;64362;45.620;4.920;2023-02-28T04:57:11;3.22;;;2.13;;
59734;SDS011;64362;45.620;4.920;2023-02-28T04:59:36;3.13;;;1.90;;
59734;SDS011;64362;45.620;4.920;2023-02-28T05:02:02;3.22;;;1.95;;
59734;SDS011;64362;45.620;4.920;2023-02-28T05:04:32;2.60;;;1.80;;
59734;SDS011;64362;45.620;4.920;2023-02-28T05:06:59;2.83;;;1.92;;
59734;SDS011;64362;45.620;4.920;2023-02-28T05:09:25;4.05;;;2.40;;
59734;SDS011;64362;45.620;4.920;2023-02-28T05:11:51;3.17;;;2.08;;
59734;SDS011;64362;45.620;4.920;2023-02-28T05:14:16;4.25;;;2.22;;
59734;SDS011;64362;45.620;4.920;2023-02-28T05:16:42;4.00;;;2.70;;
59734;SDS011;64362;45.620;4.920;2023-02-28T05:19:07;3.50;;;2.30;;
59734;SDS011;64362;45.620;4.920;2023-02-28T05:21:47;3.05;;;1.73;;
59734;SDS011;64362;45.620;4.920;2023-02-28T05:24:18;3.25;;;2.10;;
59734;SDS011;64362;45.620;4.920;2023-02-28T05:26:48;2.65;;;2.20;;
59734;SDS011;64362;45.620;4.920;2023-02-28T05:29:16;5.13;;;2.17;;
59734;SDS011;64362;45.620;4.920;2023-02-28T05:31:41;2.80;;;2.00;;
59734;SDS011;64362;45.620;4.920;2023-02-28T05:34:07;3.17;;;2.45;;
59734;SDS011;64362;45.620;4.920;2023-02-28T05:36:32;3.78;;;2.47;;
59734;SDS011;64362;45.620;4.920;2023-02-28T05:38:58;3.10;;;2.22;;
59734;SDS011;64362;45.620;4.920;2023-02-28T05:41:24;3.45;;;2.50;;
59734;SDS011;64362;45.620;4.920;2023-02-28T05:43:49;3.35;;;1.95;;
59734;SDS011;64362;45.620;4.920;2023-02-28T05:46:15;4.13;;;2.33;;
59734;SDS011;64362;45.620;4.920;2023-02-28T05:48:41;4.93;;;2.25;;
59734;SDS011;64362;45.620;4.920;2023-02-28T05:51:07;3.03;;;2.20;;
59734;SDS011;64362;45.620;4.920;2023-02-28T05:53:33;3.88;;;2.25;;
59734;SDS011;64362;45.620;4.920;2023-02-28T05:55:59;3.40;;;2.50;;
59734;SDS011;64362;45.620;4.920;2023-02-28T05:58:25;4.10;;;1.90;;
59734;SDS011;64362;45.620;4.920;2023-02-28T06:00:54;3.83;;;2.58;;
59734;SDS011;64362;45.620;4.920;2023-02-28T06:03:19;3.53;;;2.20;;
59734;SDS011;64362;45.620;4.920;2023-02-28T06:05:45;5.40;;;2.63;;
59734;SDS011;64362;45.620;4.920;2023-02-28T06:08:10;3.10;;;2.60;;
59734;SDS011;64362;45.620;4.920;2023-02-28T06:10:36;3.05;;;2.30;;
59734;SDS011;64362;45.620;4.920;2023-02-28T06:13:04;3.65;;;2.58;;
59734;SDS011;64362;45.620;4.920;2023-02-28T06:15:30;3.92;;;2.65;;
59734;SDS011;64362;45.620;4.920;2023-02-28T06:17:56;3.67;;;2.58;;
59734;SDS011;64362;45.620;4.920;2023-02-28T06:20:22;4.10;;;2.60;;
59734;SDS011;64362;45.620;4.920;2023-02-28T06:22:49;3.75;;;2.70;;
59734;SDS011;64362;45.620;4.920;2023-02-28T06:25:17;9.05;;;2.60;;
59734;SDS011;64362;45.620;4.920;2023-02-28T06:27:42;4.00;;;2.80;;
59734;SDS011;64362;45.620;4.920;2023-02-28T06:30:09;4.32;;;2.60;;
59734;SDS011;64362;45.620;4.920;2023-02-28T06:32:35;4.10;;;2.60;;
59734;SDS011;64362;45.620;4.920;2023-02-28T06:35:01;4.00;;;2.72;;
59734;SDS011;64362;45.620;4.920;2023-02-28T06:37:27;3.40;;;2.53;;
59734;SDS011;64362;45.620;4.920;2023-02-28T06:39:53;4.63;;;2.92;;
59734;SDS011;64362;45.620;4.920;2023-02-28T06:42:21;3.20;;;2.38;;
59734;SDS011;64362;45.620;4.920;2023-02-28T06:44:50;4.55;;;3.03;;
59734;SDS011;64362;45.620;4.920;2023-02-28T06:47:16;3.88;;;2.75;;
59734;SDS011;64362;45.620;4.920;2023-02-28T06:49:41;6.63;;;3.38;;
59734;SDS011;64362;45.620;4.920;2023-02-28T06:52:07;5.53;;;2.90;;
59734;SDS011;64362;45.620;4.920;2023-02-28T06:54:33;5.68;;;3.00;;
59734;SDS011;64362;45.620;4.920;2023-02-28T06:56:59;4.97;;;2.90;;
59734;SDS011;64362;45.620;4.920;2023-02-28T06:59:24;5.85;;;2.85;;
59734;SDS011;64362;45.620;4.920;2023-02-28T07:01:50;7.55;;;3.13;;
59734;SDS011;64362;45.620;4.920;2023-02-28T07:04:15;5.95;;;2.70;;
59734;SDS011;64362;45.620;4.920;2023-02-28T07:06:41;5.50;;;3.08;;
59734;SDS011;64362;45.620;4.920;2023-02-28T07:09:06;5.88;;;3.30;;
59734;SDS011;64362;45.620;4.920;2023-02-28T07:11:32;5.93;;;3.13;;
59734;SDS011;64362;45.620;4.920;2023-02-28T07:13:58;6.15;;;3.40;;
59734;SDS011;64362;45.620;4.920;2023-02-28T07:16:23;7.25;;;3.25;;
59734;SDS011;64362;45.620;4.920;2023-02-28T07:18:51;8.65;;;3.90;;
59734;SDS011;64362;45.620;4.920;2023-02-28T07:21:18;6.65;;;3.60;;
59734;SDS011;64362;45.620;4.920;2023-02-28T07:23:43;8.18;;;3.67;;
59734;SDS011;64362;45.620;4.920;2023-02-28T07:26:13;7.93;;;3.60;;
59734;SDS011;64362;45.620;4.920;2023-02-28T07:28:42;6.28;;;3.35;;
59734;SDS011;64362;45.620;4.920;2023-02-28T07:31:09;6.93;;;3.45;;
59734;SDS011;64362;45.620;4.920;2023-02-28T07:33:35;8.93;;;3.75;;
59734;SDS011;64362;45.620;4.920;2023-02-28T07:36:05;4.78;;;2.95;;
59734;SDS011;64362;45.620;4.920;2023-02-28T07:38:33;5.60;;;3.50;;
59734;SDS011;64362;45.620;4.920;2023-02-28T07:41:02;7.82;;;3.42;;
59734;SDS011;64362;45.620;4.920;2023-02-28T07:43:32;7.63;;;3.30;;
59734;SDS011;64362;45.620;4.920;2023-02-28T07:46:08;6.72;;;3.33;;
59734;SDS011;64362;45.620;4.920;2023-02-28T07:48:35;6.55;;;3.22;;
59734;SDS011;64362;45.620;4.920;2023-02-28T07:51:01;5.28;;;3.35;;
59734;SDS011;64362;45.620;4.920;2023-02-28T07:53:27;6.15;;;3.30;;
59734;SDS011;64362;45.620;4.920;2023-02-28T07:55:57;6.15;;;3.25;;
59734;SDS011;64362;45.620;4.920;2023-02-28T07:58:23;4.75;;;2.83;;
59734;SDS011;64362;45.620;4.920;2023-02-28T08:00:49;6.38;;;3.40;;
59734;SDS011;64362;45.620;4.920;2023-02-28T08:03:15;5.45;;;3.03;;
59734;SDS011;64362;45.620;4.920;2023-02-28T08:05:41;4.78;;;2.83;;
59734;SDS011;64362;45.620;4.920;2023-02-28T08:08:07;5.40;;;3.00;;
59734;SDS011;64362;45.620;4.920;2023-02-28T08:10:33;5.20;;;2.95;;
59734;SDS011;64362;45.620;4.920;2023-02-28T08:12:59;4.95;;;2.92;;
59734;SDS011;64362;45.620;4.920;2023-02-28T08:15:25;6.32;;;2.95;;
59734;SDS011;64362;45.620;4.920;2023-02-28T08:17:50;7.43;;;3.17;;
59734;SDS011;64362;45.620;4.920;2023-02-28T08:20:16;4.30;;;2.70;;
59734;SDS011;64362;45.620;4.920;2023-02-28T08:22:41;4.70;;;2.58;;
59734;SDS011;64362;45.620;4.920;2023-02-28T08:25:07;5.55;;;3.00;;
59734;SDS011;64362;45.620;4.920;2023-02-28T08:27:34;6.25;;;3.00;;
59734;SDS011;64362;45.620;4.920;2023-02-28T08:30:00;4.93;;;2.70;;
59734;SDS011;64362;45.620;4.920;2023-02-28T08:32:26;5.85;;;2.90;;
59734;SDS011;64362;45.620;4.920;2023-02-28T08:34:51;4.35;;;2.60;;
59734;SDS011;64362;45.620;4.920;2023-02-28T08:37:17;4.97;;;2.97;;
59734;SDS011;64362;45.620;4.920;2023-02-28T08:39:42;5.30;;;2.58;;
59734;SDS011;64362;45.620;4.920;2023-02-28T08:42:08;3.58;;;2.30;;
59734;SDS011;64362;45.620;4.920;2023-02-28T08:44:33;6.72;;;2.72;;
59734;SDS011;64362;45.620;4.920;2023-02-28T08:46:59;4.40;;;2.45;;
59734;SDS011;64362;45.620;4.920;2023-02-28T08:49:24;4.95;;;2.50;;
59734;SDS011;64362;45.620;4.920;2023-02-28T08:51:50;5.85;;;2.45;;
59734;SDS011;64362;45.620;4.920;2023-02-28T08:54:15;3.90;;;2.42;;
59734;SDS011;64362;45.620;4.920;2023-02-28T08:56:47;4.97;;;2.35;;
59734;SDS011;64362;45.620;4.920;2023-02-28T08:59:13;4.85;;;2.65;;
59734;SDS011;64362;45.620;4.920;2023-02-28T09:01:38;4.78;;;2.10;;
59734;SDS011;64362;45.620;4.920;2023-02-28T09:04:06;3.45;;;2.33;;
59734;SDS011;64362;45.620;4.920;2023-02-28T09:06:33;3.25;;;2.20;;
59734;SDS011;64362;45.620;4.920;2023-02-28T09:08:59;3.80;;;2.33;;
59734;SDS011;64362;45.620;4.920;2023-02-28T09:11:26;4.20;;;2.47;;
59734;SDS011;64362;45.620;4.920;2023-02-28T09:13:52;3.80;;;2.45;;
59734;SDS011;64362;45.620;4.920;2023-02-28T09:16:17;5.00;;;2.58;;
59734;SDS011;64362;45.620;4.920;2023-02-28T09:18:43;4.05;;;2.45;;
59734;SDS011;64362;45.620;4.920;2023-02-28T09:21:10;4.38;;;2.42;;
59734;SDS011;64362;45.620;4.920;2023-02-28T09:23:39;5.45;;;2.28;;
59734;SDS011;64362;45.620;4.920;2023-02-28T09:26:06;4.60;;;2.28;;
59734;SDS011;64362;45.620;4.920;2023-02-28T09:28:32;4.50;;;2.72;;
59734;SDS011;64362;45.620;4.920;2023-02-28T09:30:58;5.07;;;2.30;;
59734;SDS011;64362;45.620;4.920;2023-02-28T09:33:24;5.22;;;2.80;;
59734;SDS011;64362;45.620;4.920;2023-02-28T09:35:53;3.55;;;2.47;;
59734;SDS011;64362;45.620;4.920;2023-02-28T09:38:23;3.92;;;2.45;;
59734;SDS011;64362;45.620;4.920;2023-02-28T09:40:53;3.88;;;2.63;;
59734;SDS011;64362;45.620;4.920;2023-02-28T09:43:22;5.72;;;2.58;;
59734;SDS011;64362;45.620;4.920;2023-02-28T09:45:51;4.72;;;2.72;;
59734;SDS011;64362;45.620;4.920;2023-02-28T09:48:25;3.63;;;2.50;;
59734;SDS011;64362;45.620;4.920;2023-02-28T09:51:03;5.53;;;2.60;;
59734;SDS011;64362;45.620;4.920;2023-02-28T09:53:31;6.40;;;2.60;;
59734;SDS011;64362;45.620;4.920;2023-02-28T09:56:08;4.65;;;2.65;;
59734;SDS011;64362;45.620;4.920;2023-02-28T10:01:34;4.63;;;2.22;;
59734;SDS011;64362;45.620;4.920;2023-02-28T10:04:16;3.45;;;2.55;;
59734;SDS011;64362;45.620;4.920;2023-02-28T10:06:45;5.82;;;2.90;;
59734;SDS011;64362;45.620;4.920;2023-02-28T10:09:15;5.00;;;2.70;;
59734;SDS011;64362;45.620;4.920;2023-02-28T10:11:42;4.65;;;2.60;;
59734;SDS011;64362;45.620;4.920;2023-02-28T10:14:14;4.40;;;2.42;;
59734;SDS011;64362;45.620;4.920;2023-02-28T10:16:43;5.45;;;2.92;;
59734;SDS011;64362;45.620;4.920;2023-02-28T10:21:57;6.93;;;2.88;;
59734;SDS011;64362;45.620;4.920;2023-02-28T10:24:44;6.57;;;2.88;;
59734;SDS011;64362;45.620;4.920;2023-02-28T10:27:21;6.32;;;2.75;;
59734;SDS011;64362;45.620;4.920;2023-02-28T10:29:58;9.52;;;3.00;;
59734;SDS011;64362;45.620;4.920;2023-02-28T10:32:26;4.88;;;2.50;;
59734;SDS011;64362;45.620;4.920;2023-02-28T10:34:59;4.90;;;2.33;;
59734;SDS011;64362;45.620;4.920;2023-02-28T10:37:27;6.57;;;2.85;;
59734;SDS011;64362;45.620;4.920;2023-02-28T10:39:53;5.47;;;2.10;;
59734;SDS011;64362;45.620;4.920;2023-02-28T10:42:20;5.00;;;2.60;;
59734;SDS011;64362;45.620;4.920;2023-02-28T10:45:07;6.50;;;2.77;;
59734;SDS011;64362;45.620;4.920;2023-02-28T10:47:36;4.93;;;2.65;;
59734;SDS011;64362;45.620;4.920;2023-02-28T10:50:26;4.07;;;2.35;;
59734;SDS011;64362;45.620;4.920;2023-02-28T10:52:53;4.15;;;2.80;;
59734;SDS011;64362;45.620;4.920;2023-02-28T10:55:20;4.00;;;2.80;;
59734;SDS011;64362;45.620;4.920;2023-02-28T10:57:47;6.57;;;2.15;;
59734;SDS011;64362;45.620;4.920;2023-02-28T11:02:42;5.00;;;2.70;;
59734;SDS011;64362;45.620;4.920;2023-02-28T11:05:23;5.57;;;2.53;;
59734;SDS011;64362;45.620;4.920;2023-02-28T11:07:55;6.00;;;2.70;;
59734;SDS011;64362;45.620;4.920;2023-02-28T11:10:25;5.07;;;2.50;;
59734;SDS011;64362;45.620;4.920;2023-02-28T11:12:56;5.82;;;2.88;;
59734;SDS011;64362;45.620;4.920;2023-02-28T11:20:48;5.13;;;2.90;;
59734;SDS011;64362;45.620;4.920;2023-02-28T11:23:15;4.13;;;2.72;;
59734;SDS011;64362;45.620;4.920;2023-02-28T11:25:45;4.63;;;2.58;;
59734;SDS011;64362;45.620;4.920;2023-02-28T11:28:25;5.15;;;2.50;;
59734;SDS011;64362;45.620;4.920;2023-02-28T11:31:16;4.30;;;2.55;;
59734;SDS011;64362;45.620;4.920;2023-02-28T11:33:47;5.30;;;2.95;;
59734;SDS011;64362;45.620;4.920;2023-02-28T11:38:46;6.90;;;3.22;;
59734;SDS011;64362;45.620;4.920;2023-02-28T11:51:30;5.45;;;4.03;;
59734;SDS011;64362;45.620;4.920;2023-02-28T11:56:47;5.60;;;4.10;;
59734;SDS011;64362;45.620;4.920;2023-02-28T12:09:55;5.30;;;3.63;;
59734;SDS011;64362;45.620;4.920;2023-02-28T12:15:17;6.30;;;4.13;;
59734;SDS011;64362;45.620;4.920;2023-02-28T12:20:53;8.48;;;4.60;;
59734;SDS011;64362;45.620;4.920;2023-02-28T12:28:43;4.28;;;3.80;;
59734;SDS011;64362;45.620;4.920;2023-02-28T12:31:20;6.78;;;3.85;;
59734;SDS011;64362;45.620;4.920;2023-02-28T12:33:51;5.28;;;3.88;;
59734;SDS011;64362;45.620;4.920;2023-02-28T12:36:18;7.88;;;3.90;;
59734;SDS011;64362;45.620;4.920;2023-02-28T12:38:52;5.10;;;3.60;;
59734;SDS011;64362;45.620;4.920;2023-02-28T12:41:22;5.35;;;3.75;;
59734;SDS011;64362;45.620;4.920;2023-02-28T12:44:01;4.97;;;3.53;;
59734;SDS011;64362;45.620;4.920;2023-02-28T12:46:30;5.40;;;3.50;;
59734;SDS011;64362;45.620;4.920;2023-02-28T12:49:02;7.18;;;4.28;;
59734;SDS011;64362;45.620;4.920;2023-02-28T12:51:31;5.78;;;3.63;;
59734;SDS011;64362;45.620;4.920;2023-02-28T13:10:52;4.80;;;3.17;;
59734;SDS011;64362;45.620;4.920;2023-02-28T13:13:22;3.25;;;2.65;;
59734;SDS011;64362;45.620;4.920;2023-02-28T13:16:03;5.10;;;2.95;;
59734;SDS011;64362;45.620;4.920;2023-02-28T13:20:57;6.20;;;3.17;;
59734;SDS011;64362;45.620;4.920;2023-02-28T13:26:17;4.80;;;3.00;;
59734;SDS011;64362;45.620;4.920;2023-02-28T13:31:20;4.85;;;2.88;;
59734;SDS011;64362;45.620;4.920;2023-02-28T13:44:27;4.53;;;2.80;;
59734;SDS011;64362;45.620;4.920;2023-02-28T13:51:49;4.97;;;2.80;;
59734;SDS011;64362;45.620;4.920;2023-02-28T13:57:15;3.85;;;2.97;;
59734;SDS011;64362;45.620;4.920;2023-02-28T14:05:44;5.60;;;3.40;;
59734;SDS011;64362;45.620;4.920;2023-02-28T14:08:42;4.55;;;2.83;;
59734;SDS011;64362;45.620;4.920;2023-02-28T14:11:03;3.75;;;2.40;;
59734;SDS011;64362;45.620;4.920;2023-02-28T14:13:38;5.63;;;2.80;;
59734;SDS011;64362;45.620;4.920;2023-02-28T14:16:13;5.65;;;2.85;;
59734;SDS011;64362;45.620;4.920;2023-02-28T14:18:47;4.75;;;2.78;;
59734;SDS011;64362;45.620;4.920;2023-02-28T14:21:29;4.00;;;2.60;;
59734;SDS011;64362;45.620;4.920;2023-02-28T14:32:18;6.55;;;3.15;;
59734;SDS011;64362;45.620;4.920;2023-02-28T14:37:36;4.27;;;3.10;;
59734;SDS011;64362;45.620;4.920;2023-02-28T14:40:04;5.88;;;3.00;;
59734;SDS011;64362;45.620;4.920;2023-02-28T14:42:37;5.25;;;2.80;;
59734;SDS011;64362;45.620;4.920;2023-02-28T14:45:21;4.70;;;2.90;;
59734;SDS011;64362;45.620;4.920;2023-02-28T14:47:47;5.35;;;3.22;;
59734;SDS011;64362;45.620;4.920;2023-02-28T14:50:34;4.03;;;2.50;;
59734;SDS011;64362;45.620;4.920;2023-02-28T14:53:01;3.28;;;2.28;;
59734;SDS011;64362;45.620;4.920;2023-02-28T14:55:28;3.70;;;2.47;;
59734;SDS011;64362;45.620;4.920;2023-02-28T14:58:05;3.80;;;2.63;;
59734;SDS011;64362;45.620;4.920;2023-02-28T15:00:32;3.65;;;2.50;;
59734;SDS011;64362;45.620;4.920;2023-02-28T15:03:17;4.55;;;2.65;;
59734;SDS011;64362;45.620;4.920;2023-02-28T15:05:51;4.55;;;2.60;;
59734;SDS011;64362;45.620;4.920;2023-02-28T15:08:17;4.72;;;2.90;;
59734;SDS011;64362;45.620;4.920;2023-02-28T15:10:58;4.68;;;2.85;;
59734;SDS011;64362;45.620;4.920;2023-02-28T15:16:17;5.55;;;2.78;;
59734;SDS011;64362;45.620;4.920;2023-02-28T15:19:04;4.28;;;2.72;;
59734;SDS011;64362;45.620;4.920;2023-02-28T15:24:05;4.53;;;3.20;;
59734;SDS011;64362;45.620;4.920;2023-02-28T15:26:32;5.65;;;3.40;;
59734;SDS011;64362;45.620;4.920;2023-02-28T15:29:00;5.38;;;2.88;;
59734;SDS011;64362;45.620;4.920;2023-02-28T15:31:32;5.30;;;2.92;;
59734;SDS011;64362;45.620;4.920;2023-02-28T15:34:06;5.28;;;2.97;;
59734;SDS011;64362;45.620;4.920;2023-02-28T15:36:33;3.45;;;2.55;;
59734;SDS011;64362;45.620;4.920;2023-02-28T15:39:03;4.30;;;2.97;;
59734;SDS011;64362;45.620;4.920;2023-02-28T15:41:54;3.78;;;2.83;;
59734;SDS011;64362;45.620;4.920;2023-02-28T15:44:35;5.32;;;2.83;;
59734;SDS011;64362;45.620;4.920;2023-02-28T15:47:02;4.90;;;2.80;;
59734;SDS011;64362;45.620;4.920;2023-02-28T15:49:38;4.65;;;3.03;;
59734;SDS011;64362;45.620;4.920;2023-02-28T15:54:34;4.82;;;3.25;;
59734;SDS011;64362;45.620;4.920;2023-02-28T15:57:04;3.95;;;3.30;;
59734;SDS011;64362;45.620;4.920;2023-02-28T15:59:33;3.75;;;2.75;;
59734;SDS011;64362;45.620;4.920;2023-02-28T16:04:35;4.60;;;2.97;;
59734;SDS011;64362;45.620;4.920;2023-02-28T16:07:02;3.70;;;2.88;;
59734;SDS011;64362;45.620;4.920;2023-02-28T16:09:29;3.78;;;2.88;;
59734;SDS011;64362;45.620;4.920;2023-02-28T16:11:56;5.25;;;2.90;;
59734;SDS011;64362;45.620;4.920;2023-02-28T16:14:26;4.32;;;3.15;;
59734;SDS011;64362;45.620;4.920;2023-02-28T16:16:54;4.10;;;3.50;;
59734;SDS011;64362;45.620;4.920;2023-02-28T16:19:20;4.75;;;3.20;;
59734;SDS011;64362;45.620;4.920;2023-02-28T16:21:46;5.45;;;3.80;;
59734;SDS011;64362;45.620;4.920;2023-02-28T16:24:12;4.45;;;3.05;;
59734;SDS011;64362;45.620;4.920;2023-02-28T16:26:42;4.82;;;2.72;;
59734;SDS011;64362;45.620;4.920;2023-02-28T16:29:14;6.90;;;2.70;;
59734;SDS011;64362;45.620;4.920;2023-02-28T16:31:45;6.43;;;2.67;;
59734;SDS011;64362;45.620;4.920;2023-02-28T16:34:10;6.03;;;2.55;;
59734;SDS011;64362;45.620;4.920;2023-02-28T16:36:36;4.93;;;2.70;;
59734;SDS011;64362;45.620;4.920;2023-02-28T16:39:01;5.72;;;2.83;;
59734;SDS011;64362;45.620;4.920;2023-02-28T16:41:27;5.35;;;2.83;;
59734;SDS011;64362;45.620;4.920;2023-02-28T16:43:54;6.65;;;2.80;;
59734;SDS011;64362;45.620;4.920;2023-02-28T16:46:24;4.63;;;2.95;;
59734;SDS011;64362;45.620;4.920;2023-02-28T16:48:55;4.45;;;2.97;;
59734;SDS011;64362;45.620;4.920;2023-02-28T16:51:21;6.60;;;2.83;;
59734;SDS011;64362;45.620;4.920;2023-02-28T16:53:47;5.65;;;2.78;;
59734;SDS011;64362;45.620;4.920;2023-02-28T16:56:17;5.15;;;2.60;;
59734;SDS011;64362;45.620;4.920;2023-02-28T16:58:47;5.17;;;2.77;;
59734;SDS011;64362;45.620;4.920;2023-02-28T17:01:13;10.88;;;3.25;;
59734;SDS011;64362;45.620;4.920;2023-02-28T17:03:39;6.03;;;2.88;;
59734;SDS011;64362;45.620;4.920;2023-02-28T17:06:05;6.65;;;2.58;;
59734;SDS011;64362;45.620;4.920;2023-02-28T17:08:32;5.97;;;3.28;;
59734;SDS011;64362;45.620;4.920;2023-02-28T17:10:58;6.03;;;2.70;;
59734;SDS011;64362;45.620;4.920;2023-02-28T17:13:24;4.85;;;2.80;;
59734;SDS011;64362;45.620;4.920;2023-02-28T17:15:49;5.63;;;2.90;;
59734;SDS011;64362;45.620;4.920;2023-02-28T17:18:16;5.00;;;3.22;;
59734;SDS011;64362;45.620;4.920;2023-02-28T17:20:46;6.72;;;2.85;;
59734;SDS011;64362;45.620;4.920;2023-02-28T17:23:12;5.60;;;2.90;;
59734;SDS011;64362;45.620;4.920;2023-02-28T17:25:37;4.93;;;2.90;;
59734;SDS011;64362;45.620;4.920;2023-02-28T17:28:03;4.32;;;3.00;;
59734;SDS011;64362;45.620;4.920;2023-02-28T17:30:29;3.92;;;2.90;;
59734;SDS011;64362;45.620;4.920;2023-02-28T17:32:55;4.70;;;2.70;;
59734;SDS011;64362;45.620;4.920;2023-02-28T17:35:21;5.28;;;3.03;;
59734;SDS011;64362;45.620;4.920;2023-02-28T17:37:47;4.15;;;3.17;;
59734;SDS011;64362;45.620;4.920;2023-02-28T17:40:16;5.57;;;3.92;;
59734;SDS011;64362;45.620;4.920;2023-02-28T17:42:44;7.25;;;3.10;;
59734;SDS011;64362;45.620;4.920;2023-02-28T17:45:10;7.57;;;3.38;;